Time;durP1;ratioP1;P1;durP2;ratioP2;P2;SDS_P1;SDS_P2;PMS_P1;PMS_P2;Temp;Humidity;BMP_temperature;BMP_pressure;BME280_temperature;BME280_humidity;BME280_pressure;Samples;Min_cycle;Max_cycle;Signal;HPM_P1;HPM_P2
2023/07/24 00:01:17;;;;;;;;;;;;;;;20.79;100.00;95077.13;10478400;28;2095;-68
2023/07/24 00:06:28;;;;;;;;;;;;;;;20.68;100.00;95078.84;10473983;28;1902;-68
2023/07/24 00:11:34;;;;;;;;;;;;;;;20.81;100.00;95065.88;10480913;28;1872;-68
2023/07/24 00:16:37;;;;;;;;;;;;;;;20.57;100.00;95067.66;10463315;28;1911;-68
2023/07/24 00:21:40;;;;;;;;;;;;;;;20.71;100.00;95056.28;10480584;28;1901;-70
2023/07/24 00:26:43;;;;;;;;;;;;;;;20.56;100.00;95043.44;10479926;28;2064;-69
2023/07/24 00:31:47;;;;;;;;;;;;;;;20.50;100.00;95040.97;10474031;28;1949;-69
2023/07/24 00:36:51;;;;;;;;;;;;;;;20.53;100.00;95028.56;10469186;28;4647;-70
2023/07/24 00:41:56;;;;;;;;;;;;;;;20.35;100.00;95024.56;10476029;28;2161;-70
2023/07/24 00:47:05;;;;;;;;;;;;;;;20.30;100.00;95017.47;10478470;28;1902;-68
2023/07/24 00:52:10;;;;;;;;;;;;;;;20.59;100.00;95016.22;10482209;28;1940;-68
2023/07/24 00:57:17;;;;;;;;;;;;;;;20.20;100.00;95009.81;10480686;28;2474;-68
2023/07/24 01:02:23;;;;;;;;;;;;;;;20.30;100.00;95020.19;10474586;28;2049;-69
2023/07/24 01:07:35;;;;;;;;;;;;;;;20.28;100.00;95016.22;10470811;28;2040;-68
2023/07/24 01:12:37;;;;;;;;;;;;;;;20.14;100.00;95016.69;10477712;28;1934;-68
2023/07/24 01:17:41;;;;;;;;;;;;;;;20.01;100.00;95007.00;10478334;28;2029;-68
2023/07/24 01:22:44;;;;;;;;;;;;;;;20.04;100.00;95000.81;10477652;28;1965;-69
2023/07/24 01:27:47;;;;;;;;;;;;;;;20.14;100.00;94994.84;10474616;28;2040;-67
2023/07/24 01:32:51;;;;;;;;;;;;;;;20.28;100.00;94984.25;10474441;28;1961;-68
2023/07/24 01:37:57;;;;;;;;;;;;;;;20.32;100.00;94970.72;10476035;28;4480;-67
2023/07/24 01:43:00;;;;;;;;;;;;;;;20.55;100.00;94952.56;10476415;28;1969;-68
2023/07/24 01:48:06;;;;;;;;;;;;;;;20.37;100.00;94973.97;10475022;28;1922;-68
2023/07/24 01:53:14;;;;;;;;;;;;;;;20.25;100.00;94976.81;10479075;28;2417;-67
2023/07/24 01:58:18;;;;;;;;;;;;;;;20.28;100.00;94989.72;10479122;28;1930;-67
2023/07/24 02:03:22;;;;;;;;;;;;;;;19.74;100.00;95001.28;10475140;28;2253;-69
2023/07/24 02:08:27;;;;;;;;;;;;;;;19.28;100.00;95017.16;10484414;28;1981;-69
2023/07/24 02:13:30;;;;;;;;;;;;;;;19.19;100.00;94994.72;10480681;28;1993;-68
2023/07/24 02:18:33;;;;;;;;;;;;;;;19.22;100.00;95002.22;10483421;28;2003;-68
2023/07/24 02:23:39;;;;;;;;;;;;;;;19.92;100.00;94993.56;10481196;28;2173;-68
2023/07/24 02:28:43;;;;;;;;;;;;;;;19.81;100.00;95009.63;10481106;28;1965;-68
2023/07/24 02:33:48;;;;;;;;;;;;;;;19.27;100.00;95080.94;10481374;28;2127;-69
2023/07/24 02:38:51;;;;;;;;;;;;;;;18.76;100.00;95088.78;10480545;28;2017;-69
2023/07/24 02:43:57;;;;;;;;;;;;;;;18.73;100.00;95067.69;10484456;28;2057;-68
2023/07/24 02:49:01;;;;;;;;;;;;;;;18.84;100.00;95054.41;10482823;28;2314;-70
2023/07/24 02:54:06;;;;;;;;;;;;;;;19.13;100.00;95010.50;10482082;28;2004;-69
2023/07/24 02:59:16;;;;;;;;;;;;;;;19.25;100.00;95012.41;10479431;28;1961;-69
2023/07/24 03:04:21;;;;;;;;;;;;;;;19.30;100.00;95079.47;10480583;28;2261;-69
2023/07/24 03:09:24;;;;;;;;;;;;;;;19.69;100.00;95203.28;10479897;28;1974;-69
2023/07/24 03:19:51;;;;;;;;;;;;;;;17.78;100.00;95325.19;10482095;28;1922;-75
2023/07/24 03:25:00;;;;;;;;;;;;;;;17.34;100.00;95276.81;10477238;28;1970;-75
2023/07/24 03:30:09;;;;;;;;;;;;;;;16.86;100.00;95240.00;10485830;28;1971;-76
2023/07/24 03:35:17;;;;;;;;;;;;;;;16.66;100.00;95181.78;10478925;28;1961;-75
2023/07/24 03:40:27;;;;;;;;;;;;;;;16.65;100.00;95170.13;10484027;28;4637;-75
2023/07/24 03:45:42;;;;;;;;;;;;;;;16.38;100.00;95113.63;10480655;28;2422;-75
2023/07/24 03:50:52;;;;;;;;;;;;;;;16.48;100.00;95067.16;10494011;28;2080;-75
2023/07/24 03:56:05;;;;;;;;;;;;;;;16.57;100.00;95076.03;10486142;28;2043;-75
2023/07/24 04:01:12;;;;;;;;;;;;;;;16.66;100.00;95065.91;10480680;28;1877;-74
2023/07/24 04:06:16;;;;;;;;;;;;;;;16.75;100.00;95060.47;10476504;28;1906;-74
2023/07/24 04:11:24;;;;;;;;;;;;;;;16.88;100.00;95064.84;10476647;28;2020;-74
2023/07/24 04:16:39;;;;;;;;;;;;;;;16.92;100.00;95043.25;10473616;28;1938;-74
2023/07/24 04:21:45;;;;;;;;;;;;;;;16.87;100.00;95024.47;10479541;28;1930;-75
2023/07/24 04:32:10;;;;;;;;;;;;;;;17.40;100.00;95090.78;10474568;28;1976;-75
2023/07/24 04:37:18;;;;;;;;;;;;;;;17.41;100.00;95125.75;10480326;28;1906;-76
2023/07/24 04:42:25;;;;;;;;;;;;;;;17.36;100.00;95117.00;10474056;28;2171;-76
2023/07/24 04:47:32;;;;;;;;;;;;;;;17.34;100.00;95094.81;10479020;28;2107;-77
2023/07/24 04:52:40;;;;;;;;;;;;;;;17.44;100.00;95091.72;10476906;28;1961;-77
2023/07/24 04:57:45;;;;;;;;;;;;;;;17.50;100.00;95098.53;10476677;28;2250;-75
2023/07/24 05:02:51;;;;;;;;;;;;;;;17.65;100.00;95106.03;10472499;28;3100;-75
2023/07/24 05:07:54;;;;;;;;;;;;;;;17.86;100.00;95091.63;10478962;28;2574;-75
2023/07/24 05:13:09;;;;;;;;;;;;;;;18.02;100.00;95096.09;10478437;28;1986;-76
2023/07/24 05:18:17;;;;;;;;;;;;;;;18.20;100.00;95080.38;10478487;28;2552;-76
2023/07/24 05:23:21;;;;;;;;;;;;;;;18.43;100.00;95069.03;10488319;28;1881;-74
2023/07/24 05:28:25;;;;;;;;;;;;;;;18.43;100.00;95045.34;10479546;28;2218;-75
2023/07/24 05:33:28;;;;;;;;;;;;;;;18.59;100.00;95046.25;10474821;28;2729;-76
2023/07/24 05:38:35;;;;;;;;;;;;;;;19.20;100.00;95023.53;10479907;28;4555;-75
2023/07/24 05:43:43;;;;;;;;;;;;;;;19.83;100.00;95015.53;10482787;28;2011;-75
2023/07/24 05:48:49;;;;;;;;;;;;;;;20.40;100.00;95003.25;10484793;28;2036;-75
2023/07/24 05:53:59;;;;;;;;;;;;;;;20.45;100.00;94994.84;10485365;28;1937;-76
2023/07/24 05:59:02;;;;;;;;;;;;;;;21.11;100.00;94986.88;10499065;28;1936;-75
2023/07/24 06:04:12;;;;;;;;;;;;;;;21.74;100.00;94981.84;10479583;28;2255;-75
2023/07/24 06:09:22;;;;;;;;;;;;;;;22.48;100.00;94943.19;10480382;28;2641;-75
2023/07/24 06:14:25;;;;;;;;;;;;;;;23.06;100.00;94931.81;10482792;28;2024;-75
2023/07/24 06:19:35;;;;;;;;;;;;;;;22.76;100.00;94958.41;10480495;28;2304;-74
2023/07/24 06:24:52;;;;;;;;;;;;;;;22.55;100.00;94956.97;10484331;28;1953;-83
2023/07/24 06:30:02;;;;;;;;;;;;;;;22.51;100.00;94950.66;10489807;28;2033;-81
2023/07/24 06:35:23;;;;;;;;;;;;;;;22.95;100.00;94914.47;10487936;28;2397;-79
2023/07/24 06:45:44;;;;;;;;;;;;;;;24.33;100.00;94913.41;10495257;28;2198;-77
2023/07/24 06:50:56;;;;;;;;;;;;;;;24.23;100.00;94918.44;10479893;28;2109;-74
2023/07/24 06:56:13;;;;;;;;;;;;;;;24.62;100.00;94934.44;10477191;28;2040;-74
2023/07/24 07:01:27;;;;;;;;;;;;;;;24.72;100.00;94921.91;10476718;28;2064;-75
2023/07/24 07:06:35;;;;;;;;;;;;;;;25.83;100.00;94929.41;10485363;28;2036;-74
2023/07/24 07:11:44;;;;;;;;;;;;;;;27.01;100.00;94945.00;10482848;28;2494;-79
2023/07/24 07:16:47;;;;;;;;;;;;;;;26.57;100.00;94979.38;10474907;28;2093;-77
2023/07/24 07:21:51;;;;;;;;;;;;;;;26.34;100.00;95008.09;10477511;28;2059;-78
2023/07/24 07:26:59;;;;;;;;;;;;;;;25.22;100.00;95037.66;10480570;28;2013;-77
2023/07/24 07:32:08;;;;;;;;;;;;;;;24.34;100.00;95112.78;10477094;28;2125;-77
2023/07/24 07:37:13;;;;;;;;;;;;;;;23.03;100.00;95140.91;10462946;28;4577;-76
2023/07/24 07:42:19;;;;;;;;;;;;;;;20.91;100.00;95183.56;10481659;28;1843;-82
2023/07/24 07:47:25;;;;;;;;;;;;;;;19.09;100.00;95183.19;10484458;28;1955;-82
2023/07/24 07:52:37;;;;;;;;;;;;;;;18.76;100.00;95199.59;10470543;28;1981;-81
2023/07/24 07:57:46;;;;;;;;;;;;;;;19.08;100.00;95195.97;10483290;28;1970;-81
2023/07/24 08:02:57;;;;;;;;;;;;;;;19.38;100.00;95188.34;10472418;28;1899;-81
2023/07/24 08:08:07;;;;;;;;;;;;;;;19.67;100.00;95190.00;10476605;28;2400;-78
2023/07/24 08:13:19;;;;;;;;;;;;;;;20.00;100.00;95180.81;10478546;28;2111;-79
2023/07/24 08:18:25;;;;;;;;;;;;;;;20.46;100.00;95176.59;10458996;28;2167;-80
2023/07/24 08:23:38;;;;;;;;;;;;;;;20.13;100.00;95156.97;10477757;28;2136;-79
2023/07/24 08:28:43;;;;;;;;;;;;;;;20.02;100.00;95144.97;10474496;28;2300;-79
2023/07/24 08:33:48;;;;;;;;;;;;;;;20.16;100.00;95123.53;10489784;28;1951;-79
2023/07/24 08:38:54;;;;;;;;;;;;;;;20.11;100.00;95085.59;10484297;28;4338;-77
2023/07/24 08:44:00;;;;;;;;;;;;;;;20.81;100.00;95065.88;10472230;28;1952;-77
2023/07/24 08:49:03;;;;;;;;;;;;;;;20.61;100.00;95021.31;10471070;28;2002;-78
2023/07/24 08:54:21;;;;;;;;;;;;;;;21.07;100.00;94984.09;10466438;28;2125;-78
2023/07/24 08:59:29;;;;;;;;;;;;;;;21.16;100.00;95001.03;10477337;28;2014;-77
2023/07/24 09:04:33;;;;;;;;;;;;;;;21.01;100.00;95023.78;10488466;28;2022;-76
2023/07/24 09:09:48;;;;;;;;;;;;;;;21.00;100.00;95016.72;10468998;28;2506;-77
2023/07/24 09:15:00;;;;;;;;;;;;;;;21.01;100.00;95040.94;10477250;28;2027;-76
2023/07/24 09:20:09;;;;;;;;;;;;;;;21.12;100.00;95037.63;10484707;28;1941;-77
2023/07/24 09:25:15;;;;;;;;;;;;;;;20.69;100.00;95014.88;10476455;28;2358;-78
2023/07/24 09:30:32;;;;;;;;;;;;;;;20.71;100.00;94996.19;10478261;28;2005;-79
2023/07/24 09:35:49;;;;;;;;;;;;;;;21.81;100.00;94981.19;10478585;28;1977;-77
2023/07/24 09:40:55;;;;;;;;;;;;;;;22.56;100.00;94972.25;10482079;28;2134;-76
2023/07/24 09:46:06;;;;;;;;;;;;;;;23.53;100.00;94968.75;10477251;28;1954;-76
2023/07/24 09:51:16;;;;;;;;;;;;;;;25.04;100.00;94957.81;10477122;28;1970;-75
2023/07/24 09:56:23;;;;;;;;;;;;;;;25.11;100.00;94935.84;10475275;28;3225;-76
2023/07/24 10:01:51;;;;;;;;;;;;;;;25.85;100.00;94921.53;10483414;28;1954;-74
2023/07/24 10:06:56;;;;;;;;;;;;;;;26.08;100.00;94917.56;10473963;28;2450;-76
2023/07/24 10:12:00;;;;;;;;;;;;;;;25.54;100.00;94903.75;10474175;28;3193;-73
2023/07/24 10:17:05;;;;;;;;;;;;;;;25.39;100.00;94884.88;10479400;28;2820;-75
2023/07/24 10:22:30;;;;;;;;;;;;;;;25.69;100.00;94904.56;10472342;28;2478;-75
2023/07/24 10:27:35;;;;;;;;;;;;;;;26.30;100.00;94891.59;10479996;28;2824;-75
2023/07/24 10:32:45;;;;;;;;;;;;;;;26.68;100.00;94894.69;10472845;28;1914;-74
2023/07/24 10:38:17;;;;;;;;;;;;;;;26.64;100.00;94914.00;10475614;28;4240;-75
2023/07/24 10:43:20;;;;;;;;;;;;;;;26.68;100.00;94911.22;10493265;28;2641;-74
2023/07/24 10:48:24;;;;;;;;;;;;;;;26.95;97.68;94895.00;10474784;28;1977;-73
2023/07/24 10:53:30;;;;;;;;;;;;;;;26.77;100.00;94889.53;10478372;28;1884;-74
2023/07/24 10:58:37;;;;;;;;;;;;;;;27.00;98.19;94868.97;10461485;28;1848;-75
2023/07/24 11:03:41;;;;;;;;;;;;;;;28.14;88.13;94868.25;10475711;28;1918;-75
2023/07/24 11:08:45;;;;;;;;;;;;;;;28.57;72.44;94857.59;10478299;28;1946;-74
2023/07/24 11:19:11;;;;;;;;;;;;;;;29.69;77.11;94838.34;10484046;28;2471;-74
2023/07/24 11:24:14;;;;;;;;;;;;;;;29.42;70.68;94803.16;10471587;28;2287;-74
2023/07/24 11:29:26;;;;;;;;;;;;;;;28.90;75.62;94789.63;10473180;28;2118;-75
2023/07/24 11:34:38;;;;;;;;;;;;;;;28.71;64.85;94807.66;10476374;28;1820;-74
2023/07/24 11:39:48;;;;;;;;;;;;;;;29.44;70.00;94817.34;10488782;28;4537;-75
2023/07/24 11:44:54;;;;;;;;;;;;;;;28.96;66.95;94793.53;10471399;28;1876;-75
2023/07/24 11:50:04;;;;;;;;;;;;;;;28.51;66.51;94779.84;10474236;28;1906;-75
2023/07/24 11:55:28;;;;;;;;;;;;;;;28.33;67.23;94779.28;10470240;28;1833;-76
2023/07/24 12:00:36;;;;;;;;;;;;;;;27.69;70.84;94794.47;10478018;28;1872;-76
2023/07/24 12:05:43;;;;;;;;;;;;;;;27.15;77.34;94807.84;10480109;28;1855;-76
2023/07/24 12:10:57;;;;;;;;;;;;;;;26.23;86.44;94808.19;10474884;28;1902;-78
2023/07/24 12:16:08;;;;;;;;;;;;;;;25.96;100.00;94838.13;10473548;28;2498;-77
2023/07/24 12:21:15;;;;;;;;;;;;;;;24.37;100.00;94915.06;10471029;28;1966;-76
2023/07/24 12:26:25;;;;;;;;;;;;;;;23.16;100.00;94986.00;10471188;28;1837;-75
2023/07/24 12:31:35;;;;;;;;;;;;;;;21.76;100.00;95011.59;10471725;28;1977;-79
2023/07/24 12:42:09;;;;;;;;;;;;;;;20.87;100.00;94966.09;10477410;28;1843;-80
2023/07/24 12:47:13;;;;;;;;;;;;;;;21.38;100.00;94949.56;10474502;28;2052;-77
2023/07/24 12:52:20;;;;;;;;;;;;;;;21.94;100.00;94957.94;10467066;28;1954;-78
2023/07/24 12:57:32;;;;;;;;;;;;;;;21.55;100.00;94969.00;10476007;28;2314;-77
2023/07/24 13:02:43;;;;;;;;;;;;;;;21.09;100.00;95000.09;10484737;28;3657;-76
2023/07/24 13:07:46;;;;;;;;;;;;;;;20.67;100.00;94995.31;10473815;28;1985;-76
2023/07/24 13:12:54;;;;;;;;;;;;;;;20.80;100.00;94983.09;10469762;28;1860;-77
2023/07/24 13:18:02;;;;;;;;;;;;;;;20.49;100.00;94992.22;10489200;28;2597;-77
2023/07/24 13:23:19;;;;;;;;;;;;;;;20.28;100.00;94978.03;10483307;28;1980;-76
2023/07/24 13:28:29;;;;;;;;;;;;;;;19.98;100.00;94949.28;10470682;28;1948;-76
2023/07/24 13:33:39;;;;;;;;;;;;;;;19.57;100.00;94933.41;10472572;28;2032;-78
2023/07/24 13:39:07;;;;;;;;;;;;;;;19.35;100.00;94941.06;10489247;28;4564;-80
2023/07/24 13:44:19;;;;;;;;;;;;;;;19.42;100.00;94941.25;10469852;28;2012;-82
2023/07/24 13:49:26;;;;;;;;;;;;;;;19.78;100.00;94931.25;10469052;28;1918;-70
2023/07/24 13:54:29;;;;;;;;;;;;;;;19.92;100.00;94917.97;10472022;28;1891;-69
2023/07/24 13:59:32;;;;;;;;;;;;;;;21.03;100.00;94901.25;10472235;28;1966;-71
2023/07/24 14:04:37;;;;;;;;;;;;;;;21.90;100.00;94896.94;10480998;28;2310;-71
2023/07/24 14:09:41;;;;;;;;;;;;;;;23.01;100.00;94871.84;10481713;28;1910;-74
2023/07/24 14:14:47;;;;;;;;;;;;;;;23.57;100.00;94862.63;10484419;28;1888;-70
2023/07/24 14:19:49;;;;;;;;;;;;;;;24.30;100.00;94862.00;10487214;28;2541;-73
2023/07/24 14:24:53;;;;;;;;;;;;;;;24.23;100.00;94857.25;10487294;28;2156;-72
2023/07/24 14:29:57;;;;;;;;;;;;;;;23.95;100.00;94855.91;10474734;28;1917;-71
2023/07/24 14:35:01;;;;;;;;;;;;;;;24.63;100.00;94837.09;10477256;28;1867;-71
2023/07/24 14:40:04;;;;;;;;;;;;;;;24.31;100.00;94847.09;10474641;28;4560;-72
2023/07/24 14:45:07;;;;;;;;;;;;;;;24.53;100.00;94827.63;10474909;28;1883;-71
2023/07/24 14:50:10;;;;;;;;;;;;;;;24.97;100.00;94814.81;10481430;28;2336;-72
2023/07/24 15:06:08;;;;;;;;;;;;;;;24.95;100.00;94798.72;10479770;28;1876;-77
2023/07/24 15:11:18;;;;;;;;;;;;;;;25.18;100.00;94806.63;10470355;28;1982;-76
2023/07/24 15:16:29;;;;;;;;;;;;;;;24.89;100.00;94796.75;10484406;28;2498;-74
2023/07/24 15:32:26;;;;;;;;;;;;;;;25.23;100.00;94819.22;10480411;28;1914;-76
2023/07/24 15:37:31;;;;;;;;;;;;;;;24.93;100.00;94806.53;10478701;28;1855;-76
2023/07/24 15:42:34;;;;;;;;;;;;;;;24.44;100.00;94818.16;10493875;28;1828;-76
2023/07/24 15:47:41;;;;;;;;;;;;;;;24.36;100.00;94817.31;10495406;28;1888;-76
2023/07/24 15:52:50;;;;;;;;;;;;;;;23.71;100.00;94807.88;10496709;28;2017;-78
2023/07/24 15:58:01;;;;;;;;;;;;;;;23.69;100.00;94796.50;10473784;28;2282;-79
2023/07/24 16:03:05;;;;;;;;;;;;;;;23.57;100.00;94805.00;10477734;28;1824;-75
2023/07/24 16:08:09;;;;;;;;;;;;;;;23.52;100.00;94810.06;10478292;28;1904;-75
2023/07/24 16:13:13;;;;;;;;;;;;;;;23.33;100.00;94805.59;10473735;28;1922;-76
2023/07/24 16:18:16;;;;;;;;;;;;;;;23.25;100.00;94779.28;10469435;28;2467;-76
2023/07/24 16:23:26;;;;;;;;;;;;;;;23.01;100.00;94799.81;10476287;28;1850;-76
2023/07/24 16:28:33;;;;;;;;;;;;;;;22.53;100.00;94882.63;10470000;28;1972;-77
2023/07/24 16:33:41;;;;;;;;;;;;;;;22.31;100.00;94865.09;10471831;28;1973;-77
2023/07/24 16:38:48;;;;;;;;;;;;;;;21.37;100.00;94890.56;10472432;28;4611;-77
2023/07/24 16:43:52;;;;;;;;;;;;;;;20.32;100.00;94875.19;10475286;28;2054;-78
2023/07/24 16:48:58;;;;;;;;;;;;;;;20.22;100.00;94888.22;10472233;28;1984;-76
2023/07/24 16:54:04;;;;;;;;;;;;;;;20.19;100.00;94888.97;10472475;28;2008;-77
2023/07/24 16:59:08;;;;;;;;;;;;;;;20.06;100.00;94862.16;10476366;28;2019;-75
2023/07/24 17:04:12;;;;;;;;;;;;;;;20.11;100.00;94872.81;10472503;28;1822;-75
2023/07/24 17:09:19;;;;;;;;;;;;;;;19.70;100.00;94820.44;10481112;28;1917;-81
2023/07/24 17:14:23;;;;;;;;;;;;;;;19.59;100.00;94811.22;10482399;28;1836;-82
2023/07/24 17:19:30;;;;;;;;;;;;;;;19.56;100.00;94760.91;10480762;28;1683;-82
2023/07/24 17:29:54;;;;;;;;;;;;;;;19.95;100.00;94726.31;10481662;28;1914;-83
2023/07/24 17:35:01;;;;;;;;;;;;;;;19.93;100.00;94730.56;10489806;28;1527;-83
2023/07/24 17:40:06;;;;;;;;;;;;;;;19.81;100.00;94786.03;10492271;28;4624;-83
2023/07/24 17:45:10;;;;;;;;;;;;;;;19.64;100.00;94786.41;10488216;28;1468;-82
2023/07/24 17:50:15;;;;;;;;;;;;;;;19.36;100.00;94792.75;10491338;28;1946;-85
2023/07/24 17:55:20;;;;;;;;;;;;;;;19.20;100.00;94804.78;10499163;28;1456;-82
2023/07/24 18:00:26;;;;;;;;;;;;;;;18.96;100.00;94795.66;10487432;28;1849;-83
2023/07/24 18:05:34;;;;;;;;;;;;;;;18.96;100.00;94805.75;10487636;28;1467;-85
2023/07/24 18:10:40;;;;;;;;;;;;;;;18.99;100.00;94826.84;10487824;28;1971;-85
2023/07/24 18:15:50;;;;;;;;;;;;;;;19.39;100.00;94841.09;10494618;28;2173;-84
2023/07/24 18:21:06;;;;;;;;;;;;;;;19.54;100.00;94844.19;10477068;28;2003;-85
2023/07/24 18:26:39;;;;;;;;;;;;;;;19.66;100.00;94833.22;10488518;28;1879;-84
2023/07/24 18:31:42;;;;;;;;;;;;;;;19.57;100.00;94846.19;10486330;28;1985;-84
2023/07/24 18:36:50;;;;;;;;;;;;;;;19.65;100.00;94864.31;10476724;28;4631;-84
2023/07/24 18:47:14;;;;;;;;;;;;;;;19.68;100.00;94847.28;10489704;28;2361;-82
2023/07/24 18:52:37;;;;;;;;;;;;;;;19.69;100.00;94818.84;10487935;28;1963;-83
2023/07/24 18:57:45;;;;;;;;;;;;;;;19.70;100.00;94826.69;10492363;28;1876;-83
2023/07/24 19:13:43;;;;;;;;;;;;;;;19.55;100.00;94859.38;10500831;28;1901;-84
2023/07/24 19:19:09;;;;;;;;;;;;;;;19.27;100.00;94903.84;10472792;28;1926;-85
2023/07/24 19:24:24;;;;;;;;;;;;;;;19.01;100.00;94908.97;10490018;28;1914;-84
2023/07/24 19:29:49;;;;;;;;;;;;;;;18.86;100.00;94884.09;10489513;28;1977;-84
2023/07/24 19:34:52;;;;;;;;;;;;;;;19.04;100.00;94921.91;10487137;28;1876;-84
2023/07/24 19:39:57;;;;;;;;;;;;;;;19.10;100.00;94924.03;10477993;28;1899;-82
2023/07/24 19:45:06;;;;;;;;;;;;;;;19.12;100.00;94929.94;10475250;28;2283;-81
2023/07/24 19:50:10;;;;;;;;;;;;;;;19.09;100.00;94911.56;10488255;28;2142;-82
2023/07/24 19:55:17;;;;;;;;;;;;;;;18.95;100.00;94913.09;10495324;28;1867;-82
2023/07/24 20:00:24;;;;;;;;;;;;;;;18.96;100.00;94879.28;10492349;28;1993;-82
2023/07/24 20:05:35;;;;;;;;;;;;;;;18.70;100.00;94880.53;10494006;28;1828;-81
2023/07/24 20:10:43;;;;;;;;;;;;;;;18.69;100.00;94900.72;10491050;28;1985;-83
2023/07/24 20:15:50;;;;;;;;;;;;;;;18.77;100.00;94904.47;10485234;28;1860;-82
2023/07/24 20:21:26;;;;;;;;;;;;;;;18.68;100.00;94899.16;10484748;28;1879;-83
2023/07/24 20:26:39;;;;;;;;;;;;;;;18.85;100.00;94898.84;10481857;28;1963;-82
2023/07/24 20:31:49;;;;;;;;;;;;;;;19.07;100.00;94913.03;10485801;28;1918;-82
2023/07/24 20:36:54;;;;;;;;;;;;;;;19.09;100.00;94924.41;10483290;28;4559;-81
2023/07/24 20:42:06;;;;;;;;;;;;;;;19.14;100.00;94913.22;10480326;28;2302;-81
2023/07/24 20:47:12;;;;;;;;;;;;;;;19.10;100.00;94920.53;10481279;28;1899;-81
2023/07/24 20:52:28;;;;;;;;;;;;;;;19.04;100.00;94911.03;10478839;28;1902;-82
2023/07/24 20:57:31;;;;;;;;;;;;;;;19.04;100.00;94919.19;10484025;28;1860;-80
2023/07/24 21:02:43;;;;;;;;;;;;;;;18.94;100.00;94915.03;10483188;28;1872;-81
2023/07/24 21:07:49;;;;;;;;;;;;;;;18.95;100.00;94937.59;10463171;28;1867;-80
2023/07/24 21:13:09;;;;;;;;;;;;;;;19.05;100.00;94951.53;10491134;28;1902;-81
2023/07/24 21:18:13;;;;;;;;;;;;;;;19.12;100.00;94951.72;10488608;28;1880;-80
2023/07/24 21:23:16;;;;;;;;;;;;;;;19.25;100.00;94927.16;10488615;28;1816;-80
2023/07/24 21:28:20;;;;;;;;;;;;;;;19.20;100.00;94933.63;10489546;28;1886;-80
2023/07/24 21:33:23;;;;;;;;;;;;;;;19.07;100.00;94923.94;10489043;28;1963;-80
2023/07/24 21:38:31;;;;;;;;;;;;;;;19.10;100.00;94936.88;10489034;28;4547;-81
2023/07/24 21:43:39;;;;;;;;;;;;;;;19.09;100.00;94940.75;10484514;28;1963;-80
2023/07/24 21:48:47;;;;;;;;;;;;;;;19.14;100.00;94967.72;10488068;28;1872;-81
2023/07/24 21:53:54;;;;;;;;;;;;;;;19.15;100.00;94964.66;10487942;28;1988;-81
2023/07/24 21:59:05;;;;;;;;;;;;;;;19.27;100.00;94968.44;10488907;28;1776;-81
2023/07/24 22:04:11;;;;;;;;;;;;;;;19.31;100.00;94953.00;10484349;28;1828;-79
2023/07/24 22:09:24;;;;;;;;;;;;;;;19.13;100.00;94977.03;10481142;28;1874;-80
2023/07/24 22:14:29;;;;;;;;;;;;;;;19.12;100.00;94972.72;10482029;28;1981;-80
2023/07/24 22:19:34;;;;;;;;;;;;;;;19.01;100.00;94977.06;10486110;28;1899;-80
2023/07/24 22:24:52;;;;;;;;;;;;;;;18.84;100.00;94973.50;10481620;28;1988;-80
2023/07/24 22:29:58;;;;;;;;;;;;;;;18.80;100.00;94960.94;10484823;28;1911;-79
2023/07/24 22:35:01;;;;;;;;;;;;;;;18.75;100.00;94967.41;10482397;28;2442;-80
2023/07/24 22:40:05;;;;;;;;;;;;;;;18.63;100.00;94948.34;10480618;28;4653;-80
2023/07/24 22:45:11;;;;;;;;;;;;;;;18.60;100.00;94919.91;10482379;28;1846;-79
2023/07/24 22:50:17;;;;;;;;;;;;;;;18.49;100.00;94947.94;10487422;28;1888;-79
2023/07/24 22:55:23;;;;;;;;;;;;;;;18.76;100.00;94946.41;10477553;28;1963;-78
2023/07/24 23:00:34;;;;;;;;;;;;;;;18.72;100.00;94942.81;10476229;28;1891;-77
2023/07/24 23:05:40;;;;;;;;;;;;;;;18.73;100.00;94941.69;10486848;28;1968;-78
2023/07/24 23:10:45;;;;;;;;;;;;;;;18.59;100.00;94920.25;10483618;28;2003;-78
2023/07/24 23:15:49;;;;;;;;;;;;;;;18.26;100.00;94915.00;10500626;28;1950;-78
2023/07/24 23:20:54;;;;;;;;;;;;;;;18.18;100.00;94896.88;10482479;28;1898;-78
2023/07/24 23:26:00;;;;;;;;;;;;;;;17.98;100.00;94893.97;10482766;28;1972;-79
2023/07/24 23:31:04;;;;;;;;;;;;;;;17.91;100.00;94896.47;10480703;28;2650;-79
2023/07/24 23:36:07;;;;;;;;;;;;;;;17.98;100.00;94909.47;10479642;28;4544;-79
2023/07/24 23:41:13;;;;;;;;;;;;;;;18.13;100.00;94913.41;10483829;28;1963;-79
2023/07/24 23:46:18;;;;;;;;;;;;;;;18.13;100.00;94911.50;10481105;28;1983;-79
2023/07/24 23:51:23;;;;;;;;;;;;;;;18.15;100.00;94897.56;10477659;28;1914;-78
2023/07/24 23:56:41;;;;;;;;;;;;;;;18.23;100.00;94888.47;10482554;28;1808;-77
